createdAt,value
2019-05-23T00:00:04.949Z,1016.82
2019-05-23T00:01:05.082Z,1016.78
2019-05-23T00:02:04.779Z,1016.79
2019-05-23T00:03:04.705Z,1016.80
2019-05-23T00:04:04.793Z,1016.82
2019-05-23T00:05:04.537Z,1016.79
2019-05-23T00:06:04.469Z,1016.82
2019-05-23T00:07:04.400Z,1016.80
2019-05-23T00:08:04.282Z,1016.79
2019-05-23T00:09:04.421Z,1016.80
2019-05-23T00:10:04.118Z,1016.76
2019-05-23T00:11:04.069Z,1016.79
2019-05-23T00:12:04.029Z,1016.78
2019-05-23T00:13:03.875Z,1016.79
2019-05-23T00:14:03.792Z,1016.78
2019-05-23T00:15:03.870Z,1016.75
2019-05-23T00:16:03.636Z,1016.80
2019-05-23T00:17:03.550Z,1016.79
2019-05-23T00:18:03.657Z,1016.81
2019-05-23T00:19:03.375Z,1016.79
2019-05-23T00:20:03.469Z,1016.80
2019-05-23T00:21:03.226Z,1016.79
2019-05-23T00:22:03.126Z,1016.80
2019-05-23T00:23:03.084Z,1016.82
2019-05-23T00:24:02.954Z,1016.80
2019-05-23T00:25:02.880Z,1016.79
2019-05-23T00:26:02.920Z,1016.82
2019-05-23T00:27:02.708Z,1016.80
2019-05-23T00:28:02.703Z,1016.79
2019-05-23T00:29:10.112Z,1016.77
2019-05-23T00:30:02.506Z,1016.78
2019-05-23T00:31:02.395Z,1016.80
2019-05-23T00:32:02.315Z,1016.82
2019-05-23T00:33:02.210Z,1016.81
2019-05-23T00:34:02.338Z,1016.80
2019-05-23T00:35:02.046Z,1016.80
2019-05-23T00:36:02.181Z,1016.82
2019-05-23T00:37:01.880Z,1016.79
2019-05-23T00:38:01.792Z,1016.82
2019-05-23T00:39:01.708Z,1016.79
2019-05-23T00:40:01.770Z,1016.82
2019-05-23T00:41:01.556Z,1016.81
2019-05-23T00:42:01.456Z,1016.79
2019-05-23T00:43:01.386Z,1016.79
2019-05-23T00:44:01.368Z,1016.79
2019-05-23T00:45:01.208Z,1016.80
2019-05-23T00:46:01.157Z,1016.78
2019-05-23T00:47:01.188Z,1016.80
2019-05-23T00:48:00.962Z,1016.79
2019-05-23T00:49:00.884Z,1016.76
2019-05-23T00:50:01.002Z,1016.80
2019-05-23T00:51:04.558Z,1016.73
2019-05-23T00:52:00.654Z,1016.73
2019-05-23T00:53:00.611Z,1016.71
2019-05-23T00:54:00.462Z,1016.74
2019-05-23T00:55:00.380Z,1016.67
2019-05-23T00:56:00.425Z,1016.75
2019-05-23T00:57:00.230Z,1016.68
2019-05-23T00:58:00.237Z,1016.69
2019-05-23T00:59:00.043Z,1016.66
2019-05-23T01:00:00.043Z,1016.66
2019-05-23T01:00:59.884Z,1016.68
2019-05-23T01:01:59.885Z,1016.66
2019-05-23T01:02:59.713Z,1016.68
2019-05-23T01:03:59.658Z,1016.68
2019-05-23T01:04:59.546Z,1016.66
2019-05-23T01:05:59.674Z,1016.64
2019-05-23T01:06:59.393Z,1016.67
2019-05-23T01:07:59.297Z,1016.63
2019-05-23T01:08:59.286Z,1016.60
2019-05-23T01:09:59.130Z,1016.65
2019-05-23T01:10:59.044Z,1016.66
2019-05-23T01:11:59.035Z,1016.64
2019-05-23T01:12:58.877Z,1016.62
2019-05-23T01:13:58.796Z,1016.63
2019-05-23T01:14:58.707Z,1016.64
2019-05-23T01:15:58.716Z,1016.61
2019-05-23T01:16:58.559Z,1016.61
2019-05-23T01:17:58.466Z,1016.58
2019-05-23T01:18:58.532Z,1016.59
2019-05-23T01:19:58.296Z,1016.64
2019-05-23T01:20:58.214Z,1016.56
2019-05-23T01:21:58.179Z,1016.60
2019-05-23T01:22:58.038Z,1016.59
2019-05-23T01:23:58.154Z,1016.59
2019-05-23T01:24:57.874Z,1016.60
2019-05-23T01:25:57.964Z,1016.62
2019-05-23T01:26:58.005Z,1016.59
2019-05-23T01:27:57.622Z,1016.64
2019-05-23T01:28:57.572Z,1016.60
2019-05-23T01:29:57.462Z,1016.60
2019-05-23T01:30:57.374Z,1016.61
2019-05-23T01:31:57.757Z,1016.62
2019-05-23T01:32:57.225Z,1016.58
2019-05-23T01:33:57.198Z,1016.58
2019-05-23T01:34:57.043Z,1016.60
2019-05-23T01:35:57.001Z,1016.58
2019-05-23T01:36:56.872Z,1016.58
2019-05-23T01:37:56.849Z,1016.58
2019-05-23T01:38:56.702Z,1016.57
2019-05-23T01:39:56.827Z,1016.58
2019-05-23T01:40:56.541Z,1016.58
2019-05-23T01:41:56.636Z,1016.54
2019-05-23T01:42:56.386Z,1016.56
2019-05-23T01:43:56.443Z,1016.57
2019-05-23T01:44:56.202Z,1016.53
2019-05-23T01:45:56.251Z,1016.55
2019-05-23T01:46:56.041Z,1016.54
2019-05-23T01:47:55.962Z,1016.57
2019-05-23T01:48:55.869Z,1016.55
2019-05-23T01:49:55.868Z,1016.56
2019-05-23T01:50:55.697Z,1016.53
2019-05-23T01:51:55.625Z,1016.49
2019-05-23T01:52:55.544Z,1016.49
2019-05-23T01:53:55.484Z,1016.49
2019-05-23T01:54:55.374Z,1016.51
2019-05-23T01:55:55.497Z,1016.52
2019-05-23T01:56:55.201Z,1016.52
2019-05-23T01:57:55.127Z,1016.50
2019-05-23T01:58:55.110Z,1016.51
2019-05-23T02:00:09.060Z,1016.49
2019-05-23T02:00:54.869Z,1016.48
2019-05-23T02:01:54.926Z,1016.51
2019-05-23T02:02:54.727Z,1016.55
2019-05-23T02:03:54.618Z,1016.51
2019-05-23T02:04:54.743Z,1016.55
2019-05-23T02:05:54.446Z,1016.51
2019-05-23T02:06:54.362Z,1016.53
2019-05-23T02:07:54.352Z,1016.53
2019-05-23T02:08:54.217Z,1016.50
2019-05-23T02:09:54.108Z,1016.49
2019-05-23T02:10:54.162Z,1016.46
2019-05-23T02:11:53.953Z,1016.46
2019-05-23T02:12:53.865Z,1016.48
2019-05-23T02:13:53.811Z,1016.47
2019-05-23T02:14:53.694Z,1016.47
2019-05-23T02:15:53.790Z,1016.48
2019-05-23T02:16:53.533Z,1016.46
2019-05-23T02:17:53.443Z,1016.48
2019-05-23T02:18:53.430Z,1016.44
2019-05-23T02:19:53.278Z,1016.42
2019-05-23T02:20:53.195Z,1016.43
2019-05-23T02:21:53.214Z,1016.39
2019-05-23T02:22:53.029Z,1016.44
2019-05-23T02:23:53.057Z,1016.43
2019-05-23T02:24:52.855Z,1016.41
2019-05-23T02:25:52.830Z,1016.44
2019-05-23T02:26:52.686Z,1016.44
2019-05-23T02:27:52.609Z,1016.45
2019-05-23T02:28:52.537Z,1016.47
2019-05-23T02:29:52.651Z,1016.43
2019-05-23T02:30:52.352Z,1016.42
2019-05-23T02:31:52.467Z,1016.43
2019-05-23T02:32:52.184Z,1016.39
2019-05-23T02:33:52.117Z,1016.41
2019-05-23T02:34:52.071Z,1016.41
2019-05-23T02:35:51.936Z,1016.41
2019-05-23T02:36:51.851Z,1016.40
2019-05-23T02:37:51.886Z,1016.39
2019-05-23T02:38:51.702Z,1016.37
2019-05-23T02:39:51.697Z,1016.41
2019-05-23T02:40:51.518Z,1016.40
2019-05-23T02:41:51.511Z,1016.41
2019-05-23T02:42:51.350Z,1016.39
2019-05-23T02:43:51.300Z,1016.37
2019-05-23T02:44:51.319Z,1016.40
2019-05-23T02:45:51.108Z,1016.34
2019-05-23T02:46:51.017Z,1016.36
2019-05-23T02:47:51.132Z,1016.36
2019-05-23T02:48:50.850Z,1016.36
2019-05-23T02:49:50.973Z,1016.34
2019-05-23T02:50:50.677Z,1016.32
2019-05-23T02:51:50.752Z,1016.34
2019-05-23T02:52:50.586Z,1016.32
2019-05-23T02:53:50.556Z,1016.34
2019-05-23T02:54:50.354Z,1016.30
2019-05-23T02:55:50.364Z,1016.34
2019-05-23T02:56:50.176Z,1016.35
2019-05-23T02:57:50.178Z,1016.36
2019-05-23T02:58:50.009Z,1016.36
2019-05-23T02:59:50.016Z,1016.32
2019-05-23T03:00:54.804Z,1016.33
2019-05-23T03:01:49.790Z,1016.30
2019-05-23T03:02:49.696Z,1016.30
2019-05-23T03:03:49.803Z,1016.30
2019-05-23T03:04:49.520Z,1016.26
2019-05-23T03:05:49.615Z,1016.30
2019-05-23T03:06:49.342Z,1016.28
2019-05-23T03:07:49.422Z,1016.27
2019-05-23T03:08:49.168Z,1016.28
2019-05-23T03:09:49.270Z,1016.25
2019-05-23T03:10:49.009Z,1016.22
2019-05-23T03:11:49.038Z,1016.23
2019-05-23T03:12:48.842Z,1016.20
2019-05-23T03:13:48.854Z,1016.21
2019-05-23T03:14:48.686Z,1016.22
2019-05-23T03:15:48.659Z,1016.16
2019-05-23T03:16:48.507Z,1016.20
2019-05-23T03:17:48.469Z,1016.22
2019-05-23T03:18:48.333Z,1016.22
2019-05-23T03:19:48.322Z,1016.22
2019-05-23T03:20:48.171Z,1016.20
2019-05-23T03:21:48.078Z,1016.22
2019-05-23T03:22:48.091Z,1016.17
2019-05-23T03:23:47.912Z,1016.19
2019-05-23T03:24:47.850Z,1016.17
2019-05-23T03:25:47.901Z,1016.17
2019-05-23T03:26:47.666Z,1016.18
2019-05-23T03:27:47.580Z,1016.18
2019-05-23T03:28:47.513Z,1016.17
2019-05-23T03:29:47.419Z,1016.18
2019-05-23T03:30:47.531Z,1016.21
2019-05-23T03:31:47.253Z,1016.22
2019-05-23T03:32:47.165Z,1016.19
2019-05-23T03:33:47.071Z,1016.20
2019-05-23T03:34:47.179Z,1016.17
2019-05-23T03:35:46.908Z,1016.16
2019-05-23T03:36:46.826Z,1016.18
2019-05-23T03:37:46.755Z,1016.16
2019-05-23T03:38:46.660Z,1016.15
2019-05-23T03:39:46.596Z,1016.17
2019-05-23T03:40:46.483Z,1016.17
2019-05-23T03:41:46.573Z,1016.14
2019-05-23T03:42:46.317Z,1016.17
2019-05-23T03:43:46.382Z,1016.10
2019-05-23T03:44:46.187Z,1016.16
2019-05-23T03:45:46.191Z,1016.13
2019-05-23T03:46:46.028Z,1016.13
2019-05-23T03:47:45.897Z,1016.15
2019-05-23T03:48:46.008Z,1016.16
2019-05-23T03:49:45.725Z,1016.16
2019-05-23T03:50:45.656Z,1016.10
2019-05-23T03:51:45.656Z,1016.14
2019-05-23T03:52:45.478Z,1016.17
2019-05-23T03:53:45.389Z,1016.19
2019-05-23T03:54:45.433Z,1016.15
2019-05-23T03:55:45.236Z,1016.21
2019-05-23T03:56:45.141Z,1016.21
2019-05-23T03:57:45.245Z,1016.21
2019-05-23T03:58:44.994Z,1016.21
2019-05-23T03:59:44.912Z,1016.20
2019-05-23T04:00:44.905Z,1016.23
2019-05-23T04:01:48.462Z,1016.25
2019-05-23T04:02:44.643Z,1016.22
2019-05-23T04:03:44.678Z,1016.23
2019-05-23T04:04:44.470Z,1016.29
2019-05-23T04:05:44.514Z,1016.25
2019-05-23T04:06:44.302Z,1016.23
2019-05-23T04:07:44.225Z,1016.25
2019-05-23T04:08:44.306Z,1016.28
2019-05-23T04:09:44.062Z,1016.27
2019-05-23T04:10:44.459Z,1016.29
2019-05-23T04:11:43.904Z,1016.26
2019-05-23T04:12:43.799Z,1016.28
2019-05-23T04:13:43.761Z,1016.31
2019-05-23T04:14:43.720Z,1016.30
2019-05-23T04:15:43.575Z,1016.29
2019-05-23T04:16:43.479Z,1016.30
2019-05-23T04:17:43.549Z,1016.29
2019-05-23T04:18:43.307Z,1016.32
2019-05-23T04:19:43.359Z,1016.31
2019-05-23T04:20:43.140Z,1016.34
2019-05-23T04:21:43.154Z,1016.34
2019-05-23T04:22:42.963Z,1016.35
2019-05-23T04:23:42.878Z,1016.37
2019-05-23T04:24:42.968Z,1016.34
2019-05-23T04:25:42.722Z,1016.38
2019-05-23T04:26:42.628Z,1016.43
2019-05-23T04:27:42.580Z,1016.42
2019-05-23T04:28:42.462Z,1016.37
2019-05-23T04:29:42.597Z,1016.40
2019-05-23T04:30:42.306Z,1016.37
2019-05-23T04:31:42.412Z,1016.37
2019-05-23T04:32:42.123Z,1016.38
2019-05-23T04:33:42.209Z,1016.38
2019-05-23T04:34:41.958Z,1016.39
2019-05-23T04:35:42.053Z,1016.44
2019-05-23T04:36:41.798Z,1016.45
2019-05-23T04:37:41.829Z,1016.43
2019-05-23T04:38:41.646Z,1016.41
2019-05-23T04:39:41.551Z,1016.43
2019-05-23T04:40:41.685Z,1016.44
2019-05-23T04:41:41.388Z,1016.46
2019-05-23T04:42:41.304Z,1016.46
2019-05-23T04:43:41.288Z,1016.41
2019-05-23T04:44:44.349Z,1016.41
2019-05-23T04:45:41.058Z,1016.41
2019-05-23T04:46:41.077Z,1016.40
2019-05-23T04:47:40.908Z,1016.38
2019-05-23T04:48:40.797Z,1016.39
2019-05-23T04:49:40.880Z,1016.38
2019-05-23T04:50:40.654Z,1016.39
2019-05-23T04:51:40.553Z,1016.37
2019-05-23T04:52:40.700Z,1016.39
2019-05-23T04:53:40.390Z,1016.45
2019-05-23T04:54:40.307Z,1016.49
2019-05-23T04:55:40.356Z,1016.47
2019-05-23T04:56:40.178Z,1016.47
2019-05-23T04:57:40.072Z,1016.50
2019-05-23T04:58:40.119Z,1016.47
2019-05-23T04:59:39.897Z,1016.49
2019-05-23T05:00:39.960Z,1016.56
2019-05-23T05:01:39.730Z,1016.56
2019-05-23T05:02:39.651Z,1016.64
2019-05-23T05:03:39.656Z,1016.62
2019-05-23T05:04:39.500Z,1016.62
2019-05-23T05:05:39.484Z,1016.65
2019-05-23T05:06:39.367Z,1016.71
2019-05-23T05:07:39.246Z,1016.69
2019-05-23T05:08:39.173Z,1016.68
2019-05-23T05:09:39.092Z,1016.68
2019-05-23T05:10:39.013Z,1016.71
2019-05-23T05:11:38.927Z,1016.65
2019-05-23T05:12:38.833Z,1016.70
2019-05-23T05:13:38.756Z,1016.71
2019-05-23T05:14:38.793Z,1016.72
2019-05-23T05:15:38.663Z,1016.70
2019-05-23T05:16:38.523Z,1016.72
2019-05-23T05:17:39.368Z,1016.72
2019-05-23T05:18:38.491Z,1016.72
2019-05-23T05:19:38.269Z,1016.81
2019-05-23T05:20:38.305Z,1016.79
2019-05-23T05:21:38.114Z,1016.83
2019-05-23T05:22:38.033Z,1016.79
2019-05-23T05:23:38.039Z,1016.79
2019-05-23T05:24:40.283Z,1016.81
2019-05-23T05:25:38.076Z,1016.78
2019-05-23T05:26:37.854Z,1016.82
2019-05-23T05:27:38.432Z,1016.82
2019-05-23T05:28:38.441Z,1016.82
2019-05-23T05:29:37.477Z,1016.87
2019-05-23T05:30:37.393Z,1016.90
2019-05-23T05:31:37.382Z,1016.89
2019-05-23T05:32:45.015Z,1016.90
2019-05-23T05:33:37.416Z,1016.94
2019-05-23T05:34:37.058Z,1017.01
2019-05-23T05:35:37.110Z,1016.99
2019-05-23T05:36:36.917Z,1017.01
2019-05-23T05:37:36.819Z,1017.05
2019-05-23T05:38:36.826Z,1017.06
2019-05-23T05:39:36.665Z,1017.05
2019-05-23T05:40:36.585Z,1017.05
2019-05-23T05:41:37.528Z,1017.09
2019-05-23T05:42:36.421Z,1017.07
2019-05-23T05:43:36.347Z,1017.11
2019-05-23T05:44:36.403Z,1017.10
2019-05-23T05:45:36.178Z,1017.10
2019-05-23T05:46:36.114Z,1017.17
2019-05-23T05:47:36.144Z,1017.19
2019-05-23T05:48:35.934Z,1017.22
2019-05-23T05:49:35.875Z,1017.24
2019-05-23T05:50:35.827Z,1017.25
2019-05-23T05:51:35.820Z,1017.23
2019-05-23T05:52:35.622Z,1017.30
2019-05-23T05:53:35.534Z,1017.31
2019-05-23T05:54:36.479Z,1017.35
2019-05-23T05:55:35.378Z,1017.36
2019-05-23T05:56:35.301Z,1017.39
2019-05-23T05:57:35.435Z,1017.37
2019-05-23T05:58:35.145Z,1017.35
2019-05-23T05:59:35.200Z,1017.35
2019-05-23T06:00:34.990Z,1017.34
2019-05-23T06:01:35.032Z,1017.34
2019-05-23T06:02:34.861Z,1017.37
2019-05-23T06:03:34.737Z,1017.42
2019-05-23T06:04:34.826Z,1017.48
2019-05-23T06:05:34.582Z,1017.53
2019-05-23T06:06:34.504Z,1017.60
2019-05-23T06:07:35.493Z,1017.61
2019-05-23T06:08:34.342Z,1017.62
2019-05-23T06:09:34.272Z,1017.57
2019-05-23T06:10:34.180Z,1017.59
2019-05-23T06:11:34.326Z,1017.51
2019-05-23T06:12:34.052Z,1017.50
2019-05-23T06:13:34.084Z,1017.50
2019-05-23T06:14:36.221Z,1017.54
2019-05-23T06:15:33.785Z,1017.55
2019-05-23T06:16:33.707Z,1017.53
2019-05-23T06:17:33.773Z,1017.36
2019-05-23T06:18:33.566Z,1017.52
2019-05-23T06:19:33.479Z,1017.47
2019-05-23T06:20:33.516Z,1017.55
2019-05-23T06:21:33.313Z,1017.70
2019-05-23T06:22:33.285Z,1017.86
2019-05-23T06:23:33.174Z,1017.92
2019-05-23T06:24:44.901Z,1017.98
2019-05-23T06:25:33.011Z,1018.01
2019-05-23T06:26:32.919Z,1018.14
2019-05-23T06:27:32.859Z,1018.20
2019-05-23T06:28:32.770Z,1018.21
2019-05-23T06:29:32.696Z,1018.32
2019-05-23T06:30:32.896Z,1018.47
2019-05-23T06:31:32.534Z,1018.85
2019-05-23T06:32:32.475Z,1019.16
2019-05-23T06:33:32.377Z,1019.45
2019-05-23T06:34:32.325Z,1019.84
2019-05-23T06:35:32.219Z,1020.25
2019-05-23T06:36:32.149Z,1020.67
2019-05-23T06:37:34.377Z,1020.73
2019-05-23T06:38:31.991Z,1020.49
2019-05-23T06:39:31.913Z,1020.25
2019-05-23T06:40:31.842Z,1020.50
2019-05-23T06:41:31.763Z,1020.66
2019-05-23T06:42:31.699Z,1020.42
2019-05-23T06:43:31.627Z,1020.16
2019-05-23T06:44:31.532Z,1020.12
2019-05-23T06:45:31.466Z,1020.07
2019-05-23T06:46:31.378Z,1020.14
2019-05-23T06:47:31.349Z,1020.03
2019-05-23T06:48:31.226Z,1019.42
2019-05-23T06:49:31.154Z,1019.32
2019-05-23T06:50:31.079Z,1019.06
2019-05-23T06:51:31.002Z,1018.97
2019-05-23T06:52:30.927Z,1018.83
2019-05-23T06:53:30.864Z,1018.77
2019-05-23T06:54:30.781Z,1018.67
2019-05-23T06:55:30.713Z,1018.56
2019-05-23T06:56:30.625Z,1018.57
2019-05-23T06:57:30.557Z,1018.51
2019-05-23T06:58:30.502Z,1018.46
2019-05-23T06:59:30.394Z,1018.40
2019-05-23T07:00:30.330Z,1018.33
2019-05-23T07:01:30.243Z,1018.23
2019-05-23T07:02:32.100Z,1018.22
2019-05-23T07:03:41.186Z,1018.19
2019-05-23T07:04:30.024Z,1018.21
2019-05-23T07:05:29.954Z,1018.27
2019-05-23T07:06:29.869Z,1018.45
2019-05-23T07:07:29.796Z,1018.53
2019-05-23T07:08:29.769Z,1018.63
2019-05-23T07:09:29.649Z,1018.80
2019-05-23T07:10:29.588Z,1018.94
2019-05-23T07:11:29.498Z,1019.12
2019-05-23T07:12:29.440Z,1019.23
2019-05-23T07:13:29.370Z,1019.33
2019-05-23T07:14:29.277Z,1019.47
2019-05-23T07:15:29.210Z,1019.87
2019-05-23T07:16:29.143Z,1020.31
2019-05-23T07:17:29.062Z,1021.01
2019-05-23T07:18:29.022Z,1020.17
2019-05-23T07:19:28.931Z,1021.01
2019-05-23T07:20:28.844Z,1022.93
2019-05-23T07:21:28.766Z,1024.10
2019-05-23T07:22:28.703Z,1024.72
2019-05-23T07:23:28.634Z,1024.91
2019-05-23T07:24:28.551Z,1026.21
2019-05-23T07:25:28.480Z,1028.35
2019-05-23T07:26:28.415Z,1030.02
2019-05-23T07:27:28.329Z,1031.35
2019-05-23T07:28:28.268Z,1032.13
2019-05-23T07:29:28.181Z,1032.66
2019-05-23T07:30:28.121Z,1028.22
2019-05-23T07:31:28.035Z,1031.51
2019-05-23T07:32:27.964Z,1035.06
2019-05-23T07:33:27.902Z,1036.27
2019-05-23T07:34:27.819Z,1036.98
2019-05-23T07:35:27.744Z,1037.61
2019-05-23T07:36:27.680Z,1038.35
2019-05-23T07:37:27.648Z,1038.98
2019-05-23T07:38:27.535Z,1037.49
2019-05-23T07:39:27.461Z,1037.07
2019-05-23T07:40:27.400Z,1037.70
2019-05-23T07:41:27.311Z,1037.87
2019-05-23T07:42:27.238Z,1037.84
2019-05-23T07:43:27.181Z,1038.80
2019-05-23T07:44:27.094Z,1038.24
2019-05-23T07:45:27.044Z,1037.73
2019-05-23T07:46:26.948Z,1040.34
2019-05-23T07:47:26.896Z,1041.27
2019-05-23T07:48:26.833Z,1037.24
2019-05-23T07:49:26.735Z,1029.00
2019-05-23T07:50:26.670Z,1026.11
2019-05-23T07:51:29.652Z,1032.74
2019-05-23T07:52:26.530Z,1039.31
2019-05-23T07:53:26.468Z,1042.79
2019-05-23T07:54:26.402Z,1042.55
2019-05-23T07:55:26.314Z,1042.20
2019-05-23T07:56:26.274Z,1042.55
2019-05-23T07:57:26.169Z,1041.67
2019-05-23T07:58:26.122Z,1041.79
2019-05-23T07:59:26.027Z,1041.49
2019-05-23T08:00:25.963Z,1041.05
2019-05-23T08:01:25.898Z,1040.82
2019-05-23T08:02:26.446Z,1040.91
2019-05-23T08:03:25.781Z,1040.38
2019-05-23T08:04:25.736Z,1041.09
2019-05-23T08:05:25.637Z,1037.64
2019-05-23T08:06:26.583Z,1036.52
2019-05-23T08:07:25.475Z,1038.35
2019-05-23T08:08:25.469Z,1043.00
2019-05-23T08:09:25.354Z,1042.06
2019-05-23T08:10:33.849Z,1042.30
2019-05-23T08:11:25.194Z,1042.02
2019-05-23T08:12:25.187Z,1041.82
2019-05-23T08:13:25.073Z,1042.39
2019-05-23T08:14:25.071Z,1042.92
2019-05-23T08:15:24.926Z,1042.53
2019-05-23T08:16:25.050Z,1041.69
2019-05-23T08:17:24.822Z,1040.79
2019-05-23T08:18:24.863Z,1039.52
2019-05-23T08:19:24.662Z,1039.74
2019-05-23T08:20:24.577Z,1039.58
2019-05-23T08:21:24.700Z,1039.04
2019-05-23T08:22:24.441Z,1038.01
2019-05-23T08:23:24.377Z,1035.20
2019-05-23T08:24:24.398Z,1029.57
2019-05-23T08:25:24.236Z,1032.43
2019-05-23T08:26:24.269Z,1033.67
2019-05-23T08:27:24.104Z,1034.43
2019-05-23T08:28:24.046Z,1035.66
2019-05-23T08:29:26.612Z,1035.82
2019-05-23T08:30:24.117Z,1034.55
2019-05-23T08:31:23.835Z,1034.62
2019-05-23T08:32:23.929Z,1034.43
2019-05-23T08:33:23.696Z,1031.66
2019-05-23T08:34:39.997Z,1032.87
2019-05-23T08:35:23.559Z,1030.11
2019-05-23T08:36:23.542Z,1029.61
2019-05-23T08:37:23.424Z,1029.92
2019-05-23T08:38:23.367Z,1029.72
2019-05-23T08:39:23.307Z,1028.91
2019-05-23T08:40:23.366Z,1027.97
2019-05-23T08:41:23.188Z,1027.72
2019-05-23T08:42:23.173Z,1027.97
2019-05-23T08:43:23.025Z,1027.58
2019-05-23T08:44:22.979Z,1024.59
2019-05-23T08:45:22.892Z,1024.04
2019-05-23T08:46:22.998Z,1024.24
2019-05-23T08:47:22.761Z,1024.78
2019-05-23T08:48:22.694Z,1023.43
2019-05-23T08:49:22.639Z,1021.93
2019-05-23T08:50:22.555Z,1021.91
2019-05-23T08:51:22.622Z,1021.14
2019-05-23T08:52:22.421Z,1021.63
2019-05-23T08:53:22.425Z,1021.10
2019-05-23T08:54:22.297Z,1020.45
2019-05-23T08:55:22.220Z,1019.87
2019-05-23T08:56:22.240Z,1019.46
2019-05-23T08:57:22.121Z,1019.28
2019-05-23T08:58:22.013Z,1019.06
2019-05-23T08:59:22.088Z,1018.87
2019-05-23T09:00:21.879Z,1018.75
2019-05-23T09:01:21.808Z,1018.66
2019-05-23T09:02:21.850Z,1018.48
2019-05-23T09:03:21.679Z,1018.45
2019-05-23T09:04:21.648Z,1018.36
2019-05-23T09:05:21.558Z,1018.25
2019-05-23T09:06:21.483Z,1018.18
2019-05-23T09:07:21.481Z,1018.16
2019-05-23T09:08:21.355Z,1018.06
2019-05-23T09:09:29.793Z,1018.15
2019-05-23T09:10:21.232Z,1018.15
2019-05-23T09:11:21.198Z,1018.03
2019-05-23T09:12:21.088Z,1017.98
2019-05-23T09:13:22.034Z,1017.93
2019-05-23T09:14:20.948Z,1017.91
2019-05-23T09:15:20.959Z,1017.89
2019-05-23T09:16:20.826Z,1017.85
2019-05-23T09:17:20.967Z,1017.80
2019-05-23T09:18:20.696Z,1017.79
2019-05-23T09:19:20.625Z,1017.82
2019-05-23T09:20:20.576Z,1017.81
2019-05-23T09:21:20.497Z,1017.81
2019-05-23T09:22:20.423Z,1017.81
2019-05-23T09:23:20.580Z,1017.82
2019-05-23T09:24:20.296Z,1017.84
2019-05-23T09:25:20.434Z,1017.90
2019-05-23T09:26:20.170Z,1017.84
2019-05-23T09:27:20.201Z,1017.83
2019-05-23T09:28:20.039Z,1017.80
2019-05-23T09:29:21.231Z,1017.78
2019-05-23T09:30:19.921Z,1017.78
2019-05-23T09:31:20.019Z,1017.77
2019-05-23T09:32:19.768Z,1017.80
2019-05-23T09:33:19.734Z,1017.77
2019-05-23T09:34:19.646Z,1017.73
2019-05-23T09:35:21.998Z,1017.79
2019-05-23T09:36:19.640Z,1017.77
2019-05-23T09:37:19.453Z,1017.79
2019-05-23T09:38:19.380Z,1017.86
2019-05-23T09:39:19.347Z,1017.83
2019-05-23T09:40:19.261Z,1017.82
2019-05-23T09:41:19.186Z,1017.87
2019-05-23T09:42:19.269Z,1017.80
2019-05-23T09:43:19.050Z,1017.71
2019-05-23T09:44:18.986Z,1017.80
2019-05-23T09:45:19.126Z,1017.88
2019-05-23T09:46:18.877Z,1017.91
2019-05-23T09:47:18.892Z,1017.91
2019-05-23T09:48:18.729Z,1017.89
2019-05-23T09:49:18.725Z,1017.91
2019-05-23T09:50:18.609Z,1017.95
2019-05-23T09:51:18.718Z,1017.85
2019-05-23T09:52:18.490Z,1017.69
2019-05-23T09:53:18.438Z,1017.61
2019-05-23T09:54:18.333Z,1017.55
2019-05-23T09:55:18.304Z,1017.59
2019-05-23T09:56:18.201Z,1017.57
2019-05-23T09:57:18.138Z,1017.65
2019-05-23T09:58:18.064Z,1017.68
2019-05-23T09:59:18.004Z,1017.80
2019-05-23T10:00:17.970Z,1017.95
2019-05-23T10:01:17.942Z,1017.94
2019-05-23T10:02:17.809Z,1017.99
2019-05-23T10:03:17.739Z,1017.94
2019-05-23T10:04:17.669Z,1017.74
2019-05-23T10:05:17.614Z,1017.58
2019-05-23T10:06:17.565Z,1017.80
2019-05-23T10:07:17.478Z,1017.88
2019-05-23T10:08:17.408Z,1017.89
2019-05-23T10:09:17.346Z,1017.88
2019-05-23T10:10:17.270Z,1017.89
2019-05-23T10:11:17.224Z,1017.86
2019-05-23T10:12:17.140Z,1017.76
2019-05-23T10:13:17.078Z,1017.56
2019-05-23T10:14:17.009Z,1017.63
2019-05-23T10:15:16.947Z,1017.61
2019-05-23T10:16:16.886Z,1017.47
2019-05-23T10:17:16.818Z,1017.46
2019-05-23T10:18:16.750Z,1017.53
2019-05-23T10:19:16.695Z,1017.53
2019-05-23T10:20:16.612Z,1017.53
2019-05-23T10:21:16.575Z,1017.53
2019-05-23T10:22:16.484Z,1017.57
2019-05-23T10:23:16.429Z,1017.47
2019-05-23T10:24:16.361Z,1017.51
2019-05-23T10:25:16.291Z,1017.57
2019-05-23T10:26:16.226Z,1017.63
2019-05-23T10:27:16.150Z,1017.68
2019-05-23T10:28:16.082Z,1017.10
2019-05-23T10:29:16.022Z,1017.57
2019-05-23T10:30:15.948Z,1017.63
2019-05-23T10:31:15.896Z,1017.10
2019-05-23T10:32:15.825Z,1017.37
2019-05-23T10:33:15.755Z,1016.80
2019-05-23T10:34:15.684Z,1016.85
2019-05-23T10:35:15.630Z,1017.55
2019-05-23T10:36:15.600Z,1017.73
2019-05-23T10:37:15.484Z,1017.59
2019-05-23T10:38:15.428Z,1017.05
2019-05-23T10:39:15.350Z,1017.06
2019-05-23T10:40:15.280Z,1016.91
2019-05-23T10:41:15.238Z,1017.39
2019-05-23T10:42:15.145Z,1017.40
2019-05-23T10:43:15.085Z,1017.39
2019-05-23T10:44:15.017Z,1017.51
2019-05-23T10:45:14.941Z,1017.59
2019-05-23T10:46:14.899Z,1017.53
2019-05-23T10:47:14.845Z,1017.48
2019-05-23T10:48:14.745Z,1017.27
2019-05-23T10:49:14.682Z,1017.26
2019-05-23T10:50:14.626Z,1017.34
2019-05-23T10:51:14.553Z,1017.30
2019-05-23T10:52:14.480Z,1017.17
2019-05-23T10:53:14.408Z,1016.54
2019-05-23T10:54:14.343Z,1016.59
2019-05-23T10:55:14.282Z,1016.83
2019-05-23T10:56:14.232Z,1016.94
2019-05-23T10:57:14.145Z,1017.05
2019-05-23T10:58:14.100Z,1016.95
2019-05-23T10:59:14.031Z,1016.85
2019-05-23T11:00:13.944Z,1016.81
2019-05-23T11:01:13.900Z,1016.82
2019-05-23T11:02:13.811Z,1016.78
2019-05-23T11:03:13.749Z,1016.78
2019-05-23T11:04:13.686Z,1016.82
2019-05-23T11:05:14.232Z,1016.81
2019-05-23T11:06:16.679Z,1016.78
2019-05-23T11:07:13.482Z,1016.78
2019-05-23T11:08:13.415Z,1016.42
2019-05-23T11:09:13.363Z,1016.35
2019-05-23T11:10:13.287Z,1016.81
2019-05-23T11:11:14.690Z,1016.90
2019-05-23T11:12:13.152Z,1016.96
2019-05-23T11:13:13.097Z,1016.98
2019-05-23T11:14:13.025Z,1016.96
2019-05-23T11:15:12.956Z,1016.81
2019-05-23T11:16:12.897Z,1016.77
2019-05-23T11:17:12.835Z,1016.75
2019-05-23T11:18:12.764Z,1016.77
2019-05-23T11:19:12.695Z,1016.76
2019-05-23T11:20:12.625Z,1016.72
2019-05-23T11:21:12.557Z,1016.73
2019-05-23T11:22:12.507Z,1016.28
2019-05-23T11:23:12.427Z,1016.68
2019-05-23T11:24:12.368Z,1016.66
2019-05-23T11:25:12.292Z,1016.68
2019-05-23T11:26:12.229Z,1016.68
2019-05-23T11:27:12.180Z,1016.63
2019-05-23T11:28:12.093Z,1016.59
2019-05-23T11:29:12.035Z,1016.42
2019-05-23T11:30:11.965Z,1016.57
2019-05-23T11:31:11.899Z,1016.44
2019-05-23T11:32:11.858Z,1016.49
2019-05-23T11:33:11.780Z,1016.27
2019-05-23T11:34:11.702Z,1016.14
2019-05-23T11:35:11.635Z,1016.43
2019-05-23T11:36:11.583Z,1016.58
2019-05-23T11:37:11.525Z,1016.18
2019-05-23T11:38:11.438Z,1016.19
2019-05-23T11:39:11.398Z,1016.10
2019-05-23T11:40:11.308Z,1016.14
2019-05-23T11:41:11.234Z,1016.17
2019-05-23T11:42:11.191Z,1016.12
2019-05-23T11:43:11.104Z,1016.04
2019-05-23T11:44:11.052Z,1016.04
2019-05-23T11:45:10.991Z,1016.07
2019-05-23T11:46:10.923Z,1016.39
2019-05-23T11:47:10.845Z,1016.17
2019-05-23T11:48:10.830Z,1016.24
2019-05-23T11:49:10.729Z,1016.28
2019-05-23T11:50:11.140Z,1016.28
2019-05-23T11:51:10.562Z,1016.07
2019-05-23T11:52:10.510Z,1016.14
2019-05-23T11:53:10.423Z,1016.05
2019-05-23T11:54:10.544Z,1016.15
2019-05-23T11:55:10.291Z,1016.13
2019-05-23T11:56:10.242Z,1016.22
2019-05-23T11:57:10.237Z,1016.24
2019-05-23T11:58:10.112Z,1016.31
2019-05-23T11:59:10.015Z,1016.26
2019-05-23T12:00:09.962Z,1016.25
2019-05-23T12:01:10.531Z,1016.20
2019-05-23T12:02:09.832Z,1016.19
2019-05-23T12:03:09.746Z,1016.20
2019-05-23T12:04:09.699Z,1016.15